createdAt,value
2023-03-27T00:02:51.260Z,98241.00
2023-03-27T00:07:57.653Z,98231.75
2023-03-27T00:12:59.986Z,98242.59
2023-03-27T00:18:04.205Z,98263.44
2023-03-27T00:23:07.229Z,98296.69
2023-03-27T00:28:09.677Z,98284.47
2023-03-27T00:33:13.756Z,98287.28
2023-03-27T00:38:18.567Z,98304.13
2023-03-27T00:43:30.034Z,98343.09
2023-03-27T00:48:37.011Z,98352.94
2023-03-27T00:53:39.731Z,98355.22
2023-03-27T00:58:48.401Z,98372.13
2023-03-27T01:03:51.719Z,98365.41
2023-03-27T01:08:54.252Z,98381.22
2023-03-27T01:14:34.450Z,98397.66
2023-03-27T01:19:55.484Z,98381.66
2023-03-27T01:26:35.849Z,98407.72
2023-03-27T01:32:21.350Z,98438.47
2023-03-27T01:37:55.561Z,98434.97
2023-03-27T01:43:57.449Z,98451.25
2023-03-27T01:49:08.671Z,98418.22
2023-03-27T01:54:25.094Z,98459.28
2023-03-27T01:59:33.893Z,98453.44
2023-03-27T02:04:47.038Z,98476.94
2023-03-27T02:09:55.828Z,98502.16
2023-03-27T02:15:22.489Z,98505.72
2023-03-27T02:20:27.135Z,98477.28
2023-03-27T02:25:39.876Z,98468.88
2023-03-27T02:31:34.038Z,98495.59
2023-03-27T02:37:06.149Z,98506.78
2023-03-27T02:43:07.385Z,98520.88
2023-03-27T02:48:27.332Z,98472.66
2023-03-27T02:53:38.061Z,98497.91
2023-03-27T02:58:51.141Z,98480.28
2023-03-27T03:04:28.573Z,98496.28
2023-03-27T03:09:44.618Z,98529.47
2023-03-27T03:14:46.992Z,98596.97
2023-03-27T03:19:49.887Z,98572.25
2023-03-27T03:24:52.016Z,98576.09
2023-03-27T03:29:56.784Z,98530.00
2023-03-27T03:35:02.158Z,98624.28
2023-03-27T03:40:12.104Z,98643.13
2023-03-27T03:45:19.814Z,98609.69
2023-03-27T03:50:22.411Z,98585.13
2023-03-27T03:55:25.863Z,98574.28
2023-03-27T04:00:28.591Z,98595.25
2023-03-27T04:05:32.886Z,98657.03
2023-03-27T04:10:39.200Z,98667.56
2023-03-27T04:15:47.993Z,98661.19
2023-03-27T04:20:50.218Z,98663.63
2023-03-27T04:25:54.712Z,98739.41
2023-03-27T04:31:07.674Z,98670.31
2023-03-27T04:36:45.028Z,98736.47
2023-03-27T04:41:50.315Z,98716.66
2023-03-27T04:46:52.811Z,98726.53
2023-03-27T04:51:56.091Z,98692.59
2023-03-27T04:57:03.631Z,98697.06
2023-03-27T05:02:06.697Z,98808.00
2023-03-27T05:07:20.702Z,98820.31
2023-03-27T05:12:23.584Z,98740.88
2023-03-27T05:17:32.730Z,98885.72
2023-03-27T05:22:35.524Z,98880.63
2023-03-27T05:27:51.409Z,98776.13
2023-03-27T05:32:54.485Z,98921.31
2023-03-27T05:38:03.086Z,98926.66
2023-03-27T05:43:09.058Z,98843.78
2023-03-27T05:48:12.029Z,98933.00
2023-03-27T05:53:16.660Z,98949.50
2023-03-27T05:58:34.146Z,99014.84
2023-03-27T06:03:38.608Z,98964.13
2023-03-27T06:08:47.934Z,98925.50
2023-03-27T06:13:51.095Z,98901.34
2023-03-27T06:18:58.989Z,98934.16
2023-03-27T06:24:02.480Z,99070.06
2023-03-27T06:29:08.643Z,99008.03
2023-03-27T06:34:15.257Z,99035.16
2023-03-27T06:39:38.265Z,98981.50
2023-03-27T06:44:40.640Z,99063.66
2023-03-27T06:50:14.730Z,99122.13
2023-03-27T06:55:18.882Z,99061.84
2023-03-27T07:00:35.396Z,98998.25
2023-03-27T07:06:01.161Z,99080.94
2023-03-27T07:11:12.228Z,99118.25
2023-03-27T07:16:24.755Z,99160.41
2023-03-27T07:21:27.281Z,99133.53
2023-03-27T07:26:34.608Z,99120.53
2023-03-27T07:31:55.827Z,99066.31
2023-03-27T07:37:08.701Z,99170.88
2023-03-27T07:42:14.224Z,99239.53
2023-03-27T07:47:34.035Z,99220.50
2023-03-27T07:52:36.905Z,99206.34
2023-03-27T07:58:00.389Z,99249.00
2023-03-27T08:03:11.758Z,99234.22
2023-03-27T08:08:19.147Z,99241.66
2023-03-27T08:13:28.223Z,99273.78
2023-03-27T08:18:36.810Z,99196.06
2023-03-27T08:23:41.784Z,99250.66
2023-03-27T08:29:10.182Z,99187.13
2023-03-27T08:34:13.365Z,99209.06
2023-03-27T08:39:25.645Z,99343.38
2023-03-27T08:44:34.363Z,99268.28
2023-03-27T08:49:51.370Z,99210.09
2023-03-27T08:55:18.861Z,99393.25
2023-03-27T09:01:18.014Z,99271.13
2023-03-27T09:06:52.566Z,99305.94
2023-03-27T09:12:04.322Z,99429.56
2023-03-27T09:17:35.023Z,99410.84
2023-03-27T09:22:53.606Z,99376.78
2023-03-27T09:28:24.352Z,99427.38
2023-03-27T09:33:33.579Z,99404.28
2023-03-27T09:38:39.592Z,99461.28
2023-03-27T09:44:26.297Z,99503.63
2023-03-27T09:49:32.316Z,99571.56
2023-03-27T09:54:53.956Z,99495.03
2023-03-27T10:00:27.844Z,99574.94
2023-03-27T10:05:32.538Z,99486.38
2023-03-27T10:10:37.929Z,99533.53
2023-03-27T10:15:42.430Z,99587.03
2023-03-27T10:20:59.100Z,99550.22
2023-03-27T10:26:03.252Z,99560.72
2023-03-27T10:31:38.119Z,99515.81
2023-03-27T10:36:57.514Z,99528.38
2023-03-27T10:42:10.108Z,99516.31
2023-03-27T10:47:24.997Z,99585.94
2023-03-27T10:52:56.020Z,99655.41
2023-03-27T10:58:47.540Z,99560.31
2023-03-27T11:04:20.772Z,99690.19
2023-03-27T11:09:53.940Z,99592.22
2023-03-27T11:15:16.193Z,99686.63
2023-03-27T11:20:37.387Z,99602.63
2023-03-27T11:26:18.593Z,99675.78
2023-03-27T11:31:49.524Z,99648.13
2023-03-27T11:37:44.488Z,99696.06
2023-03-27T11:42:48.637Z,99718.63
2023-03-27T11:48:20.588Z,99623.16
2023-03-27T11:53:58.306Z,99656.47
2023-03-27T11:59:39.570Z,99632.97
2023-03-27T12:04:52.834Z,99639.22
2023-03-27T12:10:34.004Z,99629.69
2023-03-27T12:15:52.420Z,99666.22
2023-03-27T12:21:17.846Z,99666.50
2023-03-27T12:27:06.784Z,99734.84
2023-03-27T12:33:00.333Z,99601.66
2023-03-27T12:38:12.448Z,99802.53
2023-03-27T12:43:39.933Z,99713.13
2023-03-27T12:49:10.824Z,99612.16
2023-03-27T12:54:32.852Z,99689.97
2023-03-27T13:00:09.480Z,99625.34
2023-03-27T13:05:57.335Z,99592.22
2023-03-27T13:11:55.508Z,99685.47
2023-03-27T13:17:48.483Z,99667.22
2023-03-27T13:23:38.897Z,99647.78
2023-03-27T13:28:53.055Z,99665.91
2023-03-27T13:34:34.395Z,99726.81
2023-03-27T13:40:07.846Z,99644.53
2023-03-27T13:45:38.409Z,99623.78
2023-03-27T13:51:26.607Z,99697.47
2023-03-27T13:57:03.644Z,99740.72
2023-03-27T14:02:48.029Z,99670.25
2023-03-27T14:08:05.110Z,99740.44
2023-03-27T14:13:59.799Z,99670.34
2023-03-27T14:19:36.411Z,99657.97
2023-03-27T14:24:47.985Z,99684.09
2023-03-27T14:30:26.222Z,99612.31
2023-03-27T14:35:45.364Z,99693.72
2023-03-27T14:40:52.561Z,99594.19
2023-03-27T14:46:06.233Z,99646.72
2023-03-27T14:51:19.509Z,99541.78
2023-03-27T14:56:47.760Z,99632.59
2023-03-27T15:02:26.615Z,99600.19
2023-03-27T15:07:37.757Z,99662.09
2023-03-27T15:12:47.483Z,99599.22
2023-03-27T15:17:54.914Z,99627.31
2023-03-27T15:23:19.082Z,99609.09
2023-03-27T15:28:38.030Z,99616.00
2023-03-27T15:34:21.183Z,99584.47
2023-03-27T15:39:24.001Z,99567.63
2023-03-27T15:44:32.035Z,99581.97
2023-03-27T15:49:41.752Z,99582.84
2023-03-27T15:54:55.309Z,99599.53
2023-03-27T16:00:14.664Z,99610.66
2023-03-27T16:05:20.312Z,99586.59
2023-03-27T16:10:32.040Z,99572.09
2023-03-27T16:15:41.460Z,99590.78
2023-03-27T16:20:44.724Z,99555.09
2023-03-27T16:25:47.020Z,99583.34
2023-03-27T16:30:49.922Z,99494.94
2023-03-27T16:35:52.409Z,99507.25
2023-03-27T16:40:54.693Z,99487.66
2023-03-27T16:45:57.549Z,99514.38
2023-03-27T16:50:59.816Z,99543.03
2023-03-27T16:56:02.068Z,99518.78
2023-03-27T17:01:06.254Z,99579.47
2023-03-27T17:06:12.522Z,99562.25
2023-03-27T17:11:16.889Z,99567.56
2023-03-27T17:16:19.470Z,99571.75
2023-03-27T17:21:23.164Z,99532.94
2023-03-27T17:26:33.010Z,99601.25
2023-03-27T17:31:35.964Z,99527.28
2023-03-27T17:36:44.936Z,99628.09
2023-03-27T17:41:52.556Z,99588.38
2023-03-27T17:46:54.717Z,99574.72
2023-03-27T17:51:57.107Z,99575.66
2023-03-27T17:56:59.410Z,99641.16
2023-03-27T18:02:01.826Z,99662.63
2023-03-27T18:07:04.193Z,99639.69
2023-03-27T18:12:08.668Z,99606.66
2023-03-27T18:17:11.835Z,99644.16
2023-03-27T18:22:14.601Z,99641.75
2023-03-27T18:27:16.902Z,99643.19
2023-03-27T18:32:19.054Z,99621.94
2023-03-27T18:37:21.649Z,99635.38
2023-03-27T18:42:23.933Z,99668.94
2023-03-27T18:47:26.805Z,99637.59
2023-03-27T18:52:29.165Z,99665.34
2023-03-27T18:57:31.980Z,99647.34
2023-03-27T19:02:36.373Z,99630.44
2023-03-27T19:07:44.832Z,99650.84
2023-03-27T19:12:49.781Z,99677.41
2023-03-27T19:18:10.949Z,99648.31
2023-03-27T19:23:40.595Z,99624.16
2023-03-27T19:28:44.015Z,99648.31
2023-03-27T19:33:46.527Z,99661.38
2023-03-27T19:38:48.744Z,99666.19
2023-03-27T19:43:51.551Z,99742.63
2023-03-27T19:48:53.707Z,99768.59
2023-03-27T19:54:13.990Z,99748.00
2023-03-27T19:59:28.201Z,99723.63
2023-03-27T20:04:33.336Z,99678.84
2023-03-27T20:09:37.623Z,99630.03
2023-03-27T20:14:39.972Z,99697.00
2023-03-27T20:19:46.400Z,99770.56
2023-03-27T20:24:49.647Z,99759.22
2023-03-27T20:29:51.930Z,99665.66
2023-03-27T20:34:54.882Z,99743.81
2023-03-27T20:39:57.210Z,99698.00
2023-03-27T20:45:01.741Z,99705.91
2023-03-27T20:50:05.622Z,99710.38
2023-03-27T20:55:11.951Z,99690.38
2023-03-27T21:00:18.093Z,99817.25
2023-03-27T21:05:20.892Z,99734.59
2023-03-27T21:10:24.742Z,99677.66
2023-03-27T21:15:27.334Z,99722.25
2023-03-27T21:20:29.543Z,99821.84
2023-03-27T21:25:33.585Z,99798.09
2023-03-27T21:30:47.111Z,99786.22
2023-03-27T21:35:50.912Z,99779.38
2023-03-27T21:40:53.083Z,99741.78
2023-03-27T21:45:55.776Z,99757.13
2023-03-27T21:51:07.086Z,99775.06
2023-03-27T21:56:09.957Z,99753.09
2023-03-27T22:01:12.681Z,99781.91
2023-03-27T22:06:15.256Z,99669.66
2023-03-27T22:11:17.805Z,99692.28
2023-03-27T22:16:20.722Z,99817.81
2023-03-27T22:21:30.798Z,99734.09
2023-03-27T22:26:37.402Z,99764.13
2023-03-27T22:31:39.926Z,99783.09
2023-03-27T22:36:42.361Z,99732.09
2023-03-27T22:41:44.714Z,99739.00
2023-03-27T22:46:46.926Z,99725.31
2023-03-27T22:51:49.197Z,99781.72
2023-03-27T22:56:51.572Z,99817.94
2023-03-27T23:01:54.023Z,99708.09
2023-03-27T23:06:56.392Z,99824.56
2023-03-27T23:11:58.558Z,99863.94
2023-03-27T23:17:01.567Z,99843.88
2023-03-27T23:22:04.056Z,99796.81
2023-03-27T23:27:08.608Z,99799.31
2023-03-27T23:32:10.966Z,99881.41
2023-03-27T23:37:13.347Z,99822.84
2023-03-27T23:42:15.928Z,99761.94
2023-03-27T23:47:18.456Z,99758.44
2023-03-27T23:52:20.834Z,99833.78
2023-03-27T23:57:23.267Z,99869.63
